createdAt,value
2023-03-25T00:00:14.374Z,5.20
2023-03-25T00:02:42.503Z,3.67
2023-03-25T00:05:10.849Z,4.72
2023-03-25T00:07:37.751Z,6.03
2023-03-25T00:10:04.863Z,5.13
2023-03-25T00:12:31.519Z,6.95
2023-03-25T00:14:58.310Z,4.60
2023-03-25T00:17:31.887Z,2.15
2023-03-25T00:20:00.500Z,5.05
2023-03-25T00:22:27.321Z,2.17
2023-03-25T00:24:54.026Z,4.20
2023-03-25T00:27:20.670Z,3.20
2023-03-25T00:29:47.414Z,4.30
2023-03-25T00:32:15.732Z,4.57
2023-03-25T00:34:47.304Z,4.82
2023-03-25T00:37:21.841Z,5.07
2023-03-25T00:39:48.970Z,10.27
2023-03-25T00:42:17.514Z,5.47
2023-03-25T00:44:44.308Z,7.63
2023-03-25T00:47:12.469Z,3.55
2023-03-25T00:49:39.112Z,3.63
2023-03-25T00:52:05.733Z,4.05
2023-03-25T00:54:34.316Z,3.78
2023-03-25T00:57:01.148Z,6.73
2023-03-25T00:59:27.911Z,2.83
2023-03-25T01:01:56.145Z,4.32
2023-03-25T01:04:22.851Z,5.95
2023-03-25T01:06:52.063Z,3.28
2023-03-25T01:09:19.979Z,2.33
2023-03-25T01:11:48.266Z,8.00
2023-03-25T01:14:21.361Z,3.65
2023-03-25T01:16:48.138Z,7.18
2023-03-25T01:19:15.697Z,6.22
2023-03-25T01:21:42.496Z,2.95
2023-03-25T01:24:12.766Z,7.20
2023-03-25T01:26:41.370Z,5.25
2023-03-25T01:29:07.988Z,10.50
2023-03-25T01:31:34.592Z,4.90
2023-03-25T01:34:01.092Z,5.07
2023-03-25T01:36:31.210Z,6.72
2023-03-25T01:39:01.370Z,4.93
2023-03-25T01:41:42.360Z,4.03
2023-03-25T01:44:19.628Z,7.18
2023-03-25T01:46:49.512Z,4.30
2023-03-25T01:49:24.609Z,6.75
2023-03-25T01:51:56.967Z,6.63
2023-03-25T01:54:24.380Z,7.95
2023-03-25T01:56:52.441Z,6.80
2023-03-25T01:59:24.882Z,6.93
2023-03-25T02:01:53.647Z,8.20
2023-03-25T02:04:45.330Z,6.72
2023-03-25T02:07:13.026Z,9.10
2023-03-25T02:09:39.691Z,5.05
2023-03-25T02:12:07.514Z,9.65
2023-03-25T02:14:37.400Z,10.20
2023-03-25T02:17:33.035Z,7.05
2023-03-25T02:20:27.588Z,8.48
2023-03-25T02:23:21.915Z,7.40
2023-03-25T02:26:14.013Z,8.95
2023-03-25T02:29:05.112Z,10.18
2023-03-25T02:31:53.692Z,5.75
2023-03-25T02:34:37.922Z,7.45
2023-03-25T02:37:49.903Z,6.10
2023-03-25T02:40:26.786Z,6.13
2023-03-25T02:43:27.292Z,8.50
2023-03-25T02:45:57.842Z,8.02
2023-03-25T02:48:40.748Z,7.55
2023-03-25T02:51:19.110Z,8.45
2023-03-25T02:53:48.600Z,7.30
2023-03-25T02:58:46.739Z,10.13
2023-03-25T03:03:42.367Z,5.03
2023-03-25T03:06:17.453Z,11.85
2023-03-25T03:08:50.906Z,7.88
2023-03-25T03:11:44.936Z,7.80
2023-03-25T03:14:41.933Z,5.88
2023-03-25T03:17:20.145Z,6.90
2023-03-25T03:20:02.082Z,8.48
2023-03-25T03:22:41.213Z,7.40
2023-03-25T03:25:27.018Z,8.68
2023-03-25T03:28:05.888Z,9.90
2023-03-25T03:30:48.376Z,6.63
2023-03-25T03:33:26.074Z,5.75
2023-03-25T03:35:57.547Z,6.70
2023-03-25T03:38:34.787Z,6.72
2023-03-25T03:41:07.969Z,7.63
2023-03-25T03:43:45.274Z,8.15
2023-03-25T03:46:27.511Z,9.63
2023-03-25T03:48:59.674Z,6.55
2023-03-25T03:51:29.543Z,8.68
2023-03-25T03:54:00.704Z,4.63
2023-03-25T03:56:53.409Z,6.20
2023-03-25T03:59:30.020Z,8.90
2023-03-25T04:02:01.515Z,9.10
2023-03-25T04:04:28.325Z,5.75
2023-03-25T04:07:14.806Z,7.45
2023-03-25T04:09:55.193Z,6.20
2023-03-25T04:12:28.065Z,6.07
2023-03-25T04:14:56.161Z,8.50
2023-03-25T04:17:24.213Z,9.23
2023-03-25T04:19:53.539Z,4.53
2023-03-25T04:22:21.818Z,5.93
2023-03-25T04:24:52.010Z,5.13
2023-03-25T04:27:19.899Z,10.45
2023-03-25T04:29:47.797Z,10.30
2023-03-25T04:32:15.244Z,10.90
2023-03-25T04:34:42.046Z,10.38
2023-03-25T04:37:08.585Z,7.00
2023-03-25T04:39:35.538Z,5.30
2023-03-25T04:42:03.670Z,6.70
2023-03-25T04:44:33.774Z,3.97
2023-03-25T04:47:02.353Z,5.07
2023-03-25T04:49:28.985Z,4.47
2023-03-25T04:51:56.970Z,4.53
2023-03-25T04:54:23.963Z,5.38
2023-03-25T04:56:52.374Z,6.07
2023-03-25T04:59:21.126Z,7.90
2023-03-25T05:01:49.050Z,6.03
2023-03-25T05:04:17.625Z,8.15
2023-03-25T05:06:50.615Z,8.83
2023-03-25T05:09:24.061Z,5.18
2023-03-25T05:11:51.982Z,8.82
2023-03-25T05:14:20.786Z,6.90
2023-03-25T05:16:47.619Z,6.65
2023-03-25T05:19:15.760Z,6.03
2023-03-25T05:21:42.477Z,9.35
2023-03-25T05:24:11.210Z,8.80
2023-03-25T05:26:39.705Z,5.90
2023-03-25T05:29:15.678Z,5.68
2023-03-25T05:31:48.953Z,7.45
2023-03-25T05:34:17.182Z,6.78
2023-03-25T05:36:44.250Z,6.85
2023-03-25T05:39:11.077Z,12.45
2023-03-25T05:41:41.662Z,8.82
2023-03-25T05:44:10.418Z,7.93
2023-03-25T05:46:37.203Z,10.47
2023-03-25T05:49:03.943Z,6.13
2023-03-25T05:51:37.348Z,5.03
2023-03-25T05:54:08.746Z,5.75
2023-03-25T05:56:36.881Z,5.93
2023-03-25T05:59:03.909Z,6.68
2023-03-25T06:01:33.373Z,8.88
2023-03-25T06:04:02.873Z,9.85
2023-03-25T06:06:34.176Z,7.45
2023-03-25T06:09:02.309Z,8.23
2023-03-25T06:11:29.557Z,7.30
2023-03-25T06:13:56.488Z,6.18
2023-03-25T06:16:29.872Z,8.48
2023-03-25T06:18:59.823Z,10.65
2023-03-25T06:21:30.235Z,7.75
2023-03-25T06:23:58.836Z,7.35
2023-03-25T06:26:26.444Z,6.88
2023-03-25T06:28:53.443Z,8.27
2023-03-25T06:31:23.090Z,11.70
2023-03-25T06:33:50.848Z,9.85
2023-03-25T06:36:20.237Z,8.98
2023-03-25T06:41:20.479Z,4.83
2023-03-25T06:43:54.285Z,5.40
2023-03-25T06:46:39.586Z,5.45
2023-03-25T06:49:16.368Z,6.03
2023-03-25T06:51:43.150Z,14.07
2023-03-25T06:54:09.752Z,10.40
2023-03-25T06:56:36.399Z,6.80
2023-03-25T06:59:03.946Z,8.57
2023-03-25T07:01:30.676Z,9.05
2023-03-25T07:03:57.242Z,9.65
2023-03-25T07:06:24.718Z,7.50
2023-03-25T07:08:51.858Z,8.05
2023-03-25T07:11:27.233Z,9.77
2023-03-25T07:13:54.447Z,13.25
2023-03-25T07:16:22.197Z,5.82
2023-03-25T07:18:50.822Z,15.70
2023-03-25T07:21:18.440Z,10.80
2023-03-25T07:23:45.195Z,10.10
2023-03-25T07:26:13.375Z,9.50
2023-03-25T07:28:40.867Z,6.85
2023-03-25T07:31:08.907Z,10.02
2023-03-25T07:33:36.496Z,7.25
2023-03-25T07:36:04.627Z,7.07
2023-03-25T07:38:31.226Z,7.40
2023-03-25T07:40:58.110Z,5.95
2023-03-25T07:43:24.736Z,12.82
2023-03-25T07:45:56.401Z,6.45
2023-03-25T07:48:24.024Z,10.35
2023-03-25T07:50:52.588Z,7.50
2023-03-25T07:53:19.412Z,10.68
2023-03-25T07:55:46.438Z,4.60
2023-03-25T07:58:13.318Z,6.97
2023-03-25T08:00:39.920Z,10.07
2023-03-25T08:03:06.914Z,7.78
2023-03-25T08:05:33.603Z,6.88
2023-03-25T08:08:00.403Z,8.93
2023-03-25T08:10:27.242Z,9.15
2023-03-25T08:12:54.236Z,8.13
2023-03-25T08:15:24.598Z,9.35
2023-03-25T08:17:54.181Z,5.32
2023-03-25T08:22:48.071Z,12.88
2023-03-25T08:25:14.789Z,6.75
2023-03-25T08:27:41.510Z,4.65
2023-03-25T08:30:10.226Z,10.27
2023-03-25T08:32:38.517Z,11.20
2023-03-25T08:35:06.103Z,8.57
2023-03-25T08:37:37.778Z,8.27
2023-03-25T08:40:09.125Z,11.68
2023-03-25T08:42:36.939Z,10.85
2023-03-25T08:45:05.625Z,11.32
2023-03-25T08:47:32.296Z,9.63
2023-03-25T08:49:58.970Z,8.93
2023-03-25T08:52:25.643Z,6.05
2023-03-25T08:54:52.385Z,12.73
2023-03-25T08:57:18.983Z,13.60
2023-03-25T08:59:45.920Z,14.82
2023-03-25T09:02:13.149Z,12.02
2023-03-25T09:04:39.840Z,13.80
2023-03-25T09:07:12.512Z,7.15
2023-03-25T09:09:40.707Z,8.63
2023-03-25T09:12:08.194Z,10.05
2023-03-25T09:14:34.797Z,12.98
2023-03-25T09:17:01.396Z,11.25
2023-03-25T09:19:28.044Z,9.23
2023-03-25T09:21:54.657Z,10.35
2023-03-25T09:24:22.810Z,10.75
2023-03-25T09:26:49.738Z,10.07
2023-03-25T09:29:16.909Z,11.55
2023-03-25T09:31:43.614Z,11.07
2023-03-25T09:34:11.093Z,14.63
2023-03-25T09:36:37.896Z,9.50
2023-03-25T09:39:06.946Z,12.00
2023-03-25T09:41:51.705Z,8.70
2023-03-25T09:44:25.347Z,12.05
2023-03-25T09:46:52.268Z,9.35
2023-03-25T09:49:28.058Z,12.15
2023-03-25T09:51:56.102Z,7.38
2023-03-25T09:54:31.804Z,8.25
2023-03-25T09:57:04.956Z,13.07
2023-03-25T09:59:41.928Z,9.35
2023-03-25T10:02:28.090Z,11.70
2023-03-25T10:05:14.455Z,7.55
2023-03-25T10:07:50.556Z,11.13
2023-03-25T10:10:28.604Z,14.70
2023-03-25T10:13:19.892Z,7.45
2023-03-25T10:16:10.805Z,11.93
2023-03-25T10:18:49.678Z,12.63
2023-03-25T10:21:53.437Z,13.35
2023-03-25T10:24:27.418Z,12.05
2023-03-25T10:27:41.525Z,18.33
2023-03-25T10:30:23.591Z,14.23
2023-03-25T10:32:55.382Z,7.38
2023-03-25T10:35:30.082Z,15.13
2023-03-25T10:38:13.945Z,11.90
2023-03-25T10:40:50.161Z,9.68
2023-03-25T10:43:31.293Z,10.52
2023-03-25T10:46:17.887Z,11.75
2023-03-25T10:48:46.161Z,13.93
2023-03-25T10:51:35.617Z,14.00
2023-03-25T10:56:36.872Z,12.27
2023-03-25T10:59:28.017Z,11.55
2023-03-25T11:01:56.153Z,9.00
2023-03-25T11:04:35.285Z,12.13
2023-03-25T11:07:05.597Z,13.35
2023-03-25T11:09:34.256Z,10.30
2023-03-25T11:12:02.597Z,13.47
2023-03-25T11:14:30.861Z,15.68
2023-03-25T11:17:03.871Z,8.07
2023-03-25T11:19:41.733Z,7.60
2023-03-25T11:22:22.107Z,10.25
2023-03-25T11:24:57.911Z,11.18
2023-03-25T11:27:28.437Z,11.23
2023-03-25T11:30:17.019Z,13.77
2023-03-25T11:32:43.598Z,6.80
2023-03-25T11:35:23.111Z,11.18
2023-03-25T11:40:22.257Z,14.40
2023-03-25T11:42:54.688Z,16.05
2023-03-25T11:45:25.037Z,12.55
2023-03-25T11:47:52.529Z,10.98
2023-03-25T11:50:25.621Z,12.07
2023-03-25T11:52:56.649Z,11.05
2023-03-25T11:55:43.806Z,10.20
2023-03-25T11:58:15.941Z,11.38
2023-03-25T12:00:47.782Z,8.80
2023-03-25T12:03:14.432Z,11.90
2023-03-25T12:05:42.116Z,9.13
2023-03-25T12:08:15.522Z,10.68
2023-03-25T12:10:51.262Z,13.27
2023-03-25T12:13:30.267Z,13.10
2023-03-25T12:16:22.003Z,10.23
2023-03-25T12:19:02.798Z,10.60
2023-03-25T12:21:54.967Z,12.95
2023-03-25T12:24:48.330Z,11.35
2023-03-25T12:27:31.052Z,7.80
2023-03-25T12:30:34.766Z,9.35
2023-03-25T12:33:23.075Z,7.07
2023-03-25T12:35:57.922Z,11.00
2023-03-25T12:38:32.706Z,13.15
2023-03-25T12:41:23.233Z,10.38
2023-03-25T12:44:10.849Z,11.38
2023-03-25T12:47:15.477Z,7.93
2023-03-25T12:50:32.297Z,9.13
2023-03-25T12:53:17.333Z,8.18
2023-03-25T12:55:52.083Z,6.25
2023-03-25T12:58:34.684Z,8.13
2023-03-25T13:01:11.197Z,11.07
2023-03-25T13:03:43.968Z,9.93
2023-03-25T13:06:19.726Z,8.50
2023-03-25T13:09:25.477Z,10.10
2023-03-25T13:11:57.364Z,5.93
2023-03-25T13:14:36.729Z,7.78
2023-03-25T13:17:11.118Z,7.80
2023-03-25T13:19:42.355Z,8.73
2023-03-25T13:22:29.112Z,9.73
2023-03-25T13:24:59.327Z,8.30
2023-03-25T13:27:32.219Z,10.40
2023-03-25T13:30:00.875Z,5.50
2023-03-25T13:32:47.894Z,9.87
2023-03-25T13:35:20.675Z,5.38
2023-03-25T13:37:52.951Z,7.20
2023-03-25T13:40:25.149Z,7.70
2023-03-25T13:43:19.488Z,6.32
2023-03-25T13:45:55.002Z,10.80
2023-03-25T13:48:49.384Z,8.07
2023-03-25T13:51:16.397Z,5.63
2023-03-25T13:53:57.106Z,6.60
2023-03-25T13:56:33.049Z,9.55
2023-03-25T13:59:19.513Z,6.93
2023-03-25T14:02:11.333Z,9.25
2023-03-25T14:05:06.273Z,8.70
2023-03-25T14:08:10.770Z,7.57
2023-03-25T14:10:49.978Z,6.90
2023-03-25T14:13:31.069Z,8.70
2023-03-25T14:16:14.708Z,7.15
2023-03-25T14:18:44.454Z,10.05
2023-03-25T14:21:28.269Z,6.15
2023-03-25T14:24:04.292Z,7.03
2023-03-25T14:26:34.528Z,9.45
2023-03-25T14:29:09.021Z,10.20
2023-03-25T14:31:35.971Z,9.70
2023-03-25T14:34:02.720Z,9.02
2023-03-25T14:36:42.146Z,11.88
2023-03-25T14:39:10.594Z,9.05
2023-03-25T14:42:08.238Z,13.07
2023-03-25T14:44:41.171Z,10.10
2023-03-25T14:47:17.194Z,7.43
2023-03-25T14:50:05.330Z,7.93
2023-03-25T14:52:46.678Z,12.70
2023-03-25T14:55:41.415Z,9.80
2023-03-25T14:58:17.249Z,12.98
2023-03-25T15:01:12.623Z,9.75
2023-03-25T15:03:44.048Z,12.55
2023-03-25T15:06:28.759Z,10.75
2023-03-25T15:08:57.838Z,8.77
2023-03-25T15:11:33.841Z,12.15
2023-03-25T15:14:04.425Z,8.70
2023-03-25T15:16:47.549Z,10.68
2023-03-25T15:19:18.283Z,8.18
2023-03-25T15:21:57.093Z,9.55
2023-03-25T15:24:32.263Z,12.30
2023-03-25T15:27:36.502Z,11.50
2023-03-25T15:30:44.768Z,9.52
2023-03-25T15:33:32.520Z,11.55
2023-03-25T15:36:19.528Z,12.32
2023-03-25T15:38:51.814Z,9.68
2023-03-25T15:41:32.223Z,5.80
2023-03-25T15:44:20.950Z,4.78
2023-03-25T15:47:15.681Z,3.78
2023-03-25T15:50:01.174Z,5.93
2023-03-25T15:52:49.392Z,6.57
2023-03-25T15:56:05.632Z,4.68
2023-03-25T15:58:41.854Z,4.88
2023-03-25T16:01:25.713Z,6.93
2023-03-25T16:04:25.328Z,12.15
2023-03-25T16:06:56.670Z,4.68
2023-03-25T16:09:28.565Z,8.15
2023-03-25T16:12:01.367Z,4.65
2023-03-25T16:14:33.282Z,3.63
2023-03-25T16:17:03.624Z,9.15
2023-03-25T16:19:43.105Z,9.77
2023-03-25T16:24:44.150Z,5.00
2023-03-25T16:27:13.134Z,8.93
2023-03-25T16:29:39.964Z,8.65
2023-03-25T16:32:06.889Z,6.30
2023-03-25T16:34:40.657Z,6.95
2023-03-25T16:37:07.740Z,8.50
2023-03-25T16:39:36.702Z,6.32
2023-03-25T16:42:23.359Z,6.30
2023-03-25T16:44:49.986Z,3.63
2023-03-25T16:47:16.962Z,8.02
2023-03-25T16:49:48.298Z,3.55
2023-03-25T16:52:19.625Z,5.32
2023-03-25T16:54:52.266Z,2.30
2023-03-25T16:57:24.263Z,3.05
2023-03-25T16:59:53.040Z,6.28
2023-03-25T17:02:42.422Z,3.72
2023-03-25T17:07:57.453Z,6.00
2023-03-25T17:10:29.479Z,6.28
2023-03-25T17:13:09.589Z,8.50
2023-03-25T17:15:37.104Z,5.55
2023-03-25T17:18:13.087Z,8.82
2023-03-25T17:20:42.396Z,6.15
2023-03-25T17:23:37.308Z,7.35
2023-03-25T17:26:13.358Z,9.23
2023-03-25T17:29:01.895Z,9.25
2023-03-25T17:31:34.727Z,12.85
2023-03-25T17:34:10.848Z,9.43
2023-03-25T17:36:40.431Z,10.45
2023-03-25T17:42:00.464Z,7.05
2023-03-25T17:44:37.307Z,7.72
2023-03-25T17:47:05.546Z,8.43
2023-03-25T17:49:32.781Z,8.65
2023-03-25T17:51:59.406Z,7.45
2023-03-25T17:54:26.256Z,4.95
2023-03-25T17:56:53.047Z,4.93
2023-03-25T17:59:23.109Z,5.78
2023-03-25T18:01:50.079Z,5.28
2023-03-25T18:04:17.938Z,5.05
2023-03-25T18:06:44.808Z,6.80
2023-03-25T18:09:23.591Z,3.92
2023-03-25T18:11:53.563Z,7.60
2023-03-25T18:14:21.423Z,7.75
2023-03-25T18:16:48.048Z,6.65
2023-03-25T18:19:23.653Z,6.85
2023-03-25T18:21:50.450Z,6.50
2023-03-25T18:24:17.153Z,6.40
2023-03-25T18:26:44.629Z,4.93
2023-03-25T18:29:24.239Z,5.13
2023-03-25T18:31:52.256Z,5.15
2023-03-25T18:34:20.947Z,7.70
2023-03-25T18:36:49.415Z,3.13
2023-03-25T18:39:19.534Z,4.72
2023-03-25T18:41:46.139Z,6.50
2023-03-25T18:44:16.955Z,5.00
2023-03-25T18:46:43.607Z,5.63
2023-03-25T18:49:19.060Z,4.07
2023-03-25T18:51:48.254Z,7.07
2023-03-25T18:54:15.000Z,14.90
2023-03-25T18:56:42.121Z,6.03
2023-03-25T18:59:15.235Z,9.85
2023-03-25T19:01:42.438Z,6.40
2023-03-25T19:04:09.170Z,7.38
2023-03-25T19:06:38.968Z,8.18
2023-03-25T19:09:08.512Z,7.28
2023-03-25T19:11:35.752Z,8.43
2023-03-25T19:14:02.389Z,5.45
2023-03-25T19:16:29.130Z,5.78
2023-03-25T19:18:55.801Z,9.18
2023-03-25T19:21:22.407Z,5.47
2023-03-25T19:23:49.022Z,7.20
2023-03-25T19:26:15.776Z,8.88
2023-03-25T19:28:42.628Z,7.07
2023-03-25T19:31:13.342Z,8.80
2023-03-25T19:33:40.145Z,10.80
2023-03-25T19:36:08.158Z,6.75
2023-03-25T19:38:34.852Z,3.65
2023-03-25T19:41:12.981Z,3.50
2023-03-25T19:43:39.840Z,6.18
2023-03-25T19:46:06.998Z,3.92
2023-03-25T19:48:34.893Z,9.15
2023-03-25T19:51:01.667Z,11.45
2023-03-25T19:53:29.464Z,5.05
2023-03-25T19:55:56.818Z,4.88
2023-03-25T19:58:24.596Z,8.07
2023-03-25T20:00:51.785Z,5.20
2023-03-25T20:03:22.088Z,7.22
2023-03-25T20:05:55.526Z,6.07
2023-03-25T20:08:23.158Z,5.30
2023-03-25T20:10:49.746Z,8.75
2023-03-25T20:13:16.285Z,4.68
2023-03-25T20:15:42.944Z,6.65
2023-03-25T20:18:10.591Z,7.03
2023-03-25T20:20:37.291Z,7.22
2023-03-25T20:23:03.836Z,7.97
2023-03-25T20:25:30.578Z,5.57
2023-03-25T20:27:57.217Z,7.72
2023-03-25T20:30:24.760Z,7.78
2023-03-25T20:32:51.389Z,4.13
2023-03-25T20:35:18.993Z,6.78
2023-03-25T20:37:48.742Z,6.00
2023-03-25T20:40:17.874Z,5.80
2023-03-25T20:42:46.819Z,6.53
2023-03-25T20:45:16.446Z,11.10
2023-03-25T20:50:16.376Z,8.52
2023-03-25T20:52:44.772Z,7.07
2023-03-25T20:55:14.668Z,8.50
2023-03-25T20:57:41.645Z,7.97
2023-03-25T21:00:13.220Z,11.85
2023-03-25T21:02:41.660Z,9.35
2023-03-25T21:05:08.537Z,6.28
2023-03-25T21:07:40.016Z,6.38
2023-03-25T21:10:08.231Z,5.97
2023-03-25T21:12:44.037Z,7.25
2023-03-25T21:15:13.081Z,6.70
2023-03-25T21:17:39.742Z,8.02
2023-03-25T21:20:09.253Z,13.25
2023-03-25T21:22:43.664Z,10.75
2023-03-25T21:25:14.580Z,6.70
2023-03-25T21:27:44.789Z,5.47
2023-03-25T21:30:12.051Z,5.70
2023-03-25T21:32:39.149Z,6.28
2023-03-25T21:35:06.891Z,5.47
2023-03-25T21:37:37.756Z,6.60
2023-03-25T21:40:07.904Z,7.35
2023-03-25T21:42:34.617Z,8.55
2023-03-25T21:45:02.536Z,8.70
2023-03-25T21:47:29.160Z,8.43
2023-03-25T21:49:55.846Z,8.80
2023-03-25T21:52:26.239Z,8.70
2023-03-25T21:54:54.351Z,8.60
2023-03-25T21:57:21.876Z,10.45
2023-03-25T21:59:48.550Z,12.43
2023-03-25T22:02:15.100Z,12.30
2023-03-25T22:04:41.764Z,12.75
2023-03-25T22:07:08.500Z,11.70
2023-03-25T22:09:35.106Z,13.52
2023-03-25T22:12:01.747Z,18.20
2023-03-25T22:14:28.301Z,11.15
2023-03-25T22:16:55.008Z,22.88
2023-03-25T22:19:24.093Z,13.82
2023-03-25T22:24:17.787Z,16.02
2023-03-25T22:26:44.533Z,15.63
2023-03-25T22:29:11.572Z,16.48
2023-03-25T22:31:42.842Z,16.88
2023-03-25T22:34:12.786Z,16.23
2023-03-25T22:36:46.240Z,11.43
2023-03-25T22:39:12.921Z,14.57
2023-03-25T22:41:39.544Z,16.73
2023-03-25T22:44:06.836Z,20.25
2023-03-25T22:46:33.897Z,18.15
2023-03-25T22:49:01.121Z,21.42
2023-03-25T22:51:27.817Z,19.83
2023-03-25T22:53:54.451Z,15.30
2023-03-25T22:56:23.441Z,17.20
2023-03-25T22:58:52.989Z,16.63
2023-03-25T23:03:47.598Z,13.40
2023-03-25T23:06:14.427Z,19.40
2023-03-25T23:08:42.015Z,25.45
2023-03-25T23:11:08.541Z,19.67
2023-03-25T23:13:35.607Z,20.52
2023-03-25T23:16:05.528Z,17.35
2023-03-25T23:18:33.199Z,21.75
2023-03-25T23:20:59.879Z,21.48
2023-03-25T23:23:28.786Z,16.98
2023-03-25T23:26:04.722Z,31.20
2023-03-25T23:28:36.794Z,23.67
2023-03-25T23:31:09.197Z,18.95
2023-03-25T23:33:36.112Z,28.08
2023-03-25T23:36:05.502Z,24.98
2023-03-25T23:38:32.420Z,20.60
2023-03-25T23:41:10.073Z,18.20
2023-03-25T23:43:37.342Z,21.77
2023-03-25T23:46:06.379Z,19.58
2023-03-25T23:48:40.523Z,19.80
2023-03-25T23:51:10.531Z,19.17
2023-03-25T23:53:39.343Z,18.30
2023-03-25T23:56:06.929Z,19.77
2023-03-25T23:58:35.007Z,20.85
